Time;durP1;ratioP1;P1;durP2;ratioP2;P2;SDS_P1;SDS_P2;PMS_P1;PMS_P2;Temp;Humidity;BMP_temperature;BMP_pressure;BME280_temperature;BME280_humidity;BME280_pressure;Samples;Min_cycle;Max_cycle;Signal;HPM_P1;HPM_P2
2023/05/09 00:02:58;;;;;;;17.00;8.90;;;;;;;8.15;61.50;100095.95;223812;183;138441;-66
2023/05/09 00:08:02;;;;;;;15.40;8.60;;;;;;;8.11;61.53;100093.64;223661;183;137044;-69
2023/05/09 00:13:05;;;;;;;15.50;8.50;;;;;;;8.07;61.36;100098.17;223805;183;147125;-71
2023/05/09 00:18:10;;;;;;;14.00;8.60;;;;;;;8.04;61.25;100090.52;223606;183;138452;-70
2023/05/09 00:23:13;;;;;;;15.10;8.80;;;;;;;8.00;61.36;100091.71;223761;183;136843;-69
2023/05/09 00:28:16;;;;;;;14.90;8.40;;;;;;;7.91;61.43;100092.00;223676;183;147156;-67
2023/05/09 00:33:19;;;;;;;14.90;8.30;;;;;;;7.85;61.90;100084.44;223700;183;138651;-66
2023/05/09 00:38:23;;;;;;;13.20;7.70;;;;;;;7.85;61.80;100083.23;223779;183;137307;-67
2023/05/09 00:43:26;;;;;;;12.50;7.90;;;;;;;7.81;61.70;100084.73;223611;183;147548;-67
2023/05/09 00:48:29;;;;;;;10.30;7.50;;;;;;;7.78;61.92;100082.55;223805;183;138296;-66
2023/05/09 00:53:32;;;;;;;13.20;7.80;;;;;;;7.76;62.16;100077.86;223801;183;136610;-65
2023/05/09 00:58:36;;;;;;;10.90;7.50;;;;;;;7.74;62.30;100077.93;223656;183;147649;-67
2023/05/09 01:03:40;;;;;;;13.80;7.90;;;;;;;7.70;62.28;100074.54;223674;183;138788;-69
2023/05/09 01:09:06;;;;;;;13.60;8.10;;;;;;;7.67;62.42;100074.29;223792;182;137131;-69
2023/05/09 01:14:28;;;;;;;11.70;7.60;;;;;;;7.63;62.81;100076.17;223623;183;147591;-69
2023/05/09 01:19:49;;;;;;;11.60;8.10;;;;;;;7.58;62.66;100072.81;223782;183;139553;-69
2023/05/09 01:25:22;;;;;;;13.80;8.50;;;;;;;7.55;62.84;100072.88;223720;183;136848;-68
2023/05/09 01:30:36;;;;;;;12.80;8.20;;;;;;;7.52;62.72;100069.66;223694;183;147322;-67
2023/05/09 01:35:43;;;;;;;11.60;8.40;;;;;;;7.48;62.87;100066.08;223570;183;138756;-66
2023/05/09 01:40:51;;;;;;;14.50;8.00;;;;;;;7.46;62.88;100067.72;223781;183;137123;-66
2023/05/09 01:45:58;;;;;;;12.90;8.90;;;;;;;7.44;62.83;100065.66;223707;182;147363;-68
2023/05/09 01:51:04;;;;;;;15.00;8.30;;;;;;;7.39;62.91;100063.21;223750;183;138680;-68
2023/05/09 01:56:09;;;;;;;14.90;8.40;;;;;;;7.37;63.29;100062.38;223698;183;137749;-69
2023/05/09 02:01:14;;;;;;;14.40;8.40;;;;;;;7.34;63.48;100061.05;223699;183;148890;-66
2023/05/09 02:06:21;;;;;;;14.60;8.70;;;;;;;7.32;63.48;100059.70;223704;183;139970;-65
2023/05/09 02:11:24;;;;;;;16.10;8.80;;;;;;;7.32;63.63;100057.41;223790;183;138051;-68
2023/05/09 02:16:28;;;;;;;15.10;8.70;;;;;;;7.35;63.53;100050.08;223746;183;147980;-68
2023/05/09 02:21:32;;;;;;;15.60;9.10;;;;;;;7.41;63.38;100052.00;223631;183;138340;-68
2023/05/09 02:26:35;;;;;;;15.20;9.10;;;;;;;7.42;63.02;100047.92;223776;183;137772;-67
2023/05/09 02:31:40;;;;;;;16.40;9.40;;;;;;;7.36;63.04;100047.40;223742;183;147322;-72
2023/05/09 02:36:44;;;;;;;17.60;9.00;;;;;;;7.29;63.20;100048.50;223667;183;138903;-69
2023/05/09 02:41:48;;;;;;;17.10;9.60;;;;;;;7.22;63.27;100047.32;223772;183;137213;-69
2023/05/09 02:46:51;;;;;;;16.50;8.80;;;;;;;7.15;63.31;100047.36;223674;183;149108;-69
2023/05/09 02:51:54;;;;;;;45.30;30.50;;;;;;;7.19;64.13;100041.78;223584;182;138905;-71
2023/05/09 02:56:59;;;;;;;33.80;21.50;;;;;;;7.24;63.66;100041.27;223694;183;136592;-64
2023/05/09 03:02:07;;;;;;;18.40;11.30;;;;;;;7.21;64.18;100043.28;223697;182;147578;-64
2023/05/09 03:07:10;;;;;;;13.40;8.90;;;;;;;7.22;63.81;100046.44;223686;183;138051;-65
2023/05/09 03:12:14;;;;;;;13.90;8.80;;;;;;;7.14;63.85;100046.69;223710;183;137130;-64
2023/05/09 03:17:20;;;;;;;15.80;9.20;;;;;;;7.09;64.05;100046.49;223670;182;147164;-64
2023/05/09 05:25:39;;;;;;;13.00;8.40;;;;;;;8.83;62.88;100039.20;220733;192;668184;-64
2023/05/09 05:30:43;;;;;;;12.90;8.40;;;;;;;8.91;62.71;100041.00;223478;186;136128;-64
2023/05/09 05:35:46;;;;;;;14.20;8.60;;;;;;;9.04;62.84;100038.02;223424;186;143659;-64
2023/05/09 05:40:49;;;;;;;11.70;8.30;;;;;;;9.18;62.30;100037.29;223768;183;138444;-64
2023/05/09 05:45:55;;;;;;;12.00;8.20;;;;;;;9.29;62.18;100035.04;223701;184;136688;-65
2023/05/09 05:50:59;;;;;;;10.90;7.50;;;;;;;9.45;61.78;100031.38;223654;183;143436;-66
2023/05/09 05:56:05;;;;;;;12.00;7.80;;;;;;;9.55;61.47;100031.14;223768;183;139637;-69
2023/05/09 06:01:08;;;;;;;10.80;7.50;;;;;;;9.63;61.30;100029.76;223679;183;136493;-67
2023/05/09 06:06:12;;;;;;;10.70;7.30;;;;;;;9.74;61.13;100030.69;223713;183;143320;-70
2023/05/09 06:11:15;;;;;;;12.50;7.10;;;;;;;9.83;60.84;100028.56;223730;183;138856;-69
2023/05/09 06:16:20;;;;;;;13.40;7.50;;;;;;;9.93;60.41;100032.36;223662;184;136689;-68
2023/05/09 06:21:25;;;;;;;11.80;7.10;;;;;;;10.00;60.18;100030.30;223781;183;145219;-68
2023/05/09 06:26:29;;;;;;;9.90;6.60;;;;;;;10.04;59.52;100026.18;223730;183;138719;-69
2023/05/09 06:31:37;;;;;;;12.10;6.80;;;;;;;10.07;59.38;100023.09;223702;184;138226;-68
2023/05/09 06:36:45;;;;;;;15.80;7.70;;;;;;;10.16;59.47;100016.61;223667;184;147056;-69
2023/05/09 06:41:49;;;;;;;11.20;7.10;;;;;;;10.23;59.69;100017.59;223870;182;138443;-70
2023/05/09 06:46:59;;;;;;;15.60;8.10;;;;;;;10.36;59.58;100013.96;223893;182;136526;-69
2023/05/09 06:52:02;;;;;;;14.90;7.20;;;;;;;10.50;59.44;100012.11;223929;181;146352;-67
2023/05/09 06:57:05;;;;;;;15.80;7.90;;;;;;;10.69;58.96;100006.10;223867;181;139611;-72
2023/05/09 07:02:08;;;;;;;15.80;7.20;;;;;;;10.79;58.88;100004.89;223748;181;136896;-73
2023/05/09 07:07:11;;;;;;;11.70;7.00;;;;;;;10.86;58.48;100002.43;223854;181;145707;-73
2023/05/09 07:12:14;;;;;;;12.80;6.90;;;;;;;10.96;58.55;99998.60;223825;181;139208;-72
2023/05/09 07:17:17;;;;;;;13.20;7.10;;;;;;;11.13;57.49;99992.06;223856;182;137007;-73
2023/05/09 07:22:26;;;;;;;12.20;7.60;;;;;;;11.25;57.36;99981.00;223888;181;145721;-71
2023/05/09 07:27:32;;;;;;;9.40;6.60;;;;;;;11.37;57.42;99978.27;223902;181;139023;-69
2023/05/09 07:32:35;;;;;;;12.10;6.90;;;;;;;11.50;56.55;99968.89;223827;182;136810;-69
2023/05/09 07:37:39;;;;;;;12.30;6.20;;;;;;;11.61;55.84;99965.15;223842;181;145552;-69
2023/05/09 07:42:48;;;;;;;8.90;6.10;;;;;;;11.70;55.60;99955.83;223846;181;140220;-70
2023/05/09 07:47:52;;;;;;;12.70;6.30;;;;;;;11.81;55.24;99956.66;223747;181;137132;-69
2023/05/09 07:52:55;;;;;;;15.40;6.50;;;;;;;11.92;55.02;99953.06;223891;182;146678;-71
2023/05/09 07:57:58;;;;;;;10.50;5.40;;;;;;;12.10;54.84;99947.27;223872;181;138928;-69
2023/05/09 08:03:02;;;;;;;8.60;4.80;;;;;;;12.19;54.13;99938.44;223812;181;136682;-67
2023/05/09 08:08:06;;;;;;;11.50;5.00;;;;;;;12.37;53.90;99936.95;223839;181;145368;-70
2023/05/09 08:13:09;;;;;;;11.30;4.80;;;;;;;12.59;52.68;99928.73;223714;181;138359;-67
2023/05/09 08:18:13;;;;;;;15.30;8.80;;;;;;;12.76;52.46;99926.57;223829;181;137138;-68
2023/05/09 08:23:16;;;;;;;8.80;4.40;;;;;;;12.85;52.37;99920.19;223806;181;145713;-69
2023/05/09 08:28:22;;;;;;;12.40;4.40;;;;;;;12.95;51.93;99917.66;223789;182;139816;-68
2023/05/09 08:33:27;;;;;;;13.10;4.00;;;;;;;13.03;51.71;99912.73;223715;182;136979;-69
2023/05/09 08:38:36;;;;;;;17.70;4.50;;;;;;;13.13;50.72;99908.23;223784;181;146721;-67
2023/05/09 08:43:58;;;;;;;5.80;3.70;;;;;;;13.33;49.02;99902.83;221337;181;138963;-68
2023/05/09 08:49:11;;;;;;;7.60;3.80;;;;;;;13.53;48.88;99890.74;223765;181;137771;-68
2023/05/09 08:54:14;;;;;;;11.10;3.30;;;;;;;13.71;47.85;99885.54;223727;181;145736;-69
2023/05/09 08:59:26;;;;;;;8.70;2.90;;;;;;;13.83;47.45;99880.88;223794;181;139666;-69
2023/05/09 09:04:30;;;;;;;114.90;72.40;;;;;;;13.93;47.07;99882.24;223803;181;136460;-68
2023/05/09 09:09:35;;;;;;;7.80;3.60;;;;;;;13.99;46.65;99880.42;223820;181;147818;-67
2023/05/09 09:14:49;;;;;;;5.60;3.60;;;;;;;14.16;46.34;99875.25;223773;182;138297;-67
2023/05/09 09:19:57;;;;;;;10.60;3.40;;;;;;;14.40;45.89;99875.86;223820;181;137259;-67
2023/05/09 09:25:03;;;;;;;18.10;3.60;;;;;;;14.62;45.21;99865.54;223744;181;147276;-67
2023/05/09 09:30:11;;;;;;;11.70;3.30;;;;;;;14.87;44.94;99853.67;223754;181;138168;-66
2023/05/09 09:35:15;;;;;;;6.70;2.70;;;;;;;15.11;43.90;99851.33;223653;183;137373;-69
2023/05/09 09:40:23;;;;;;;11.30;3.80;;;;;;;15.45;45.93;99837.05;223604;215;145736;-68
2023/05/09 09:45:26;;;;;;;11.30;3.20;;;;;;;15.78;43.87;99839.20;223606;192;140541;-67
2023/05/09 10:03:42;;;;;;;5.50;3.00;;;;;;;16.42;42.15;99826.02;223595;203;137628;-68
2023/05/09 10:09:18;;;;;;;198.30;136.20;;;;;;;16.63;41.73;99823.95;223657;183;137231;-67
2023/05/09 10:14:52;;;;;;;8.60;3.60;;;;;;;16.86;40.46;99821.29;223708;192;144993;-68
2023/05/09 10:19:56;;;;;;;8.10;2.90;;;;;;;17.18;39.68;99819.45;223681;182;138837;-68
2023/05/09 10:25:05;;;;;;;8.20;2.70;;;;;;;17.37;37.16;99812.06;223790;183;138768;-68
2023/05/09 12:45:32;;;;;;;5.90;2.10;;;;;;;19.76;31.82;99666.81;220753;227;666094;-71
2023/05/09 12:50:36;;;;;;;5.10;2.00;;;;;;;20.10;31.26;99655.55;223057;221;136646;-70
2023/05/09 12:55:40;;;;;;;3.60;2.00;;;;;;;20.34;30.69;99652.80;223346;196;145200;-69
2023/05/09 13:00:44;;;;;;;7.00;4.40;;;;;;;20.39;31.48;99638.35;223237;219;138195;-69
2023/05/09 13:05:59;;;;;;;5.00;2.10;;;;;;;20.39;30.44;99635.81;223239;185;137018;-70
2023/05/09 13:11:04;;;;;;;12.40;3.20;;;;;;;20.40;30.40;99634.03;223292;192;151399;-70
2023/05/09 13:16:17;;;;;;;3.40;2.00;;;;;;;20.47;31.73;99628.33;223314;187;140167;-72
2023/05/09 13:21:20;;;;;;;11.90;2.30;;;;;;;20.28;31.96;99624.58;223522;218;136761;-71
2023/05/09 13:26:24;;;;;;;9.60;2.20;;;;;;;20.45;30.45;99617.02;223536;186;144110;-70
2023/05/09 13:31:28;;;;;;;9.70;2.50;;;;;;;20.76;29.71;99614.44;223679;183;138849;-71
2023/05/09 13:36:31;;;;;;;3.50;1.80;;;;;;;20.90;29.58;99606.09;223700;183;136910;-72
2023/05/09 13:41:34;;;;;;;8.20;2.20;;;;;;;20.59;29.77;99605.56;223781;183;145913;-72
2023/05/09 13:46:40;;;;;;;;;;;;;;;20.13;29.55;99606.48;223661;183;139976;-69
2023/05/09 13:51:43;;;;;;;2.80;2.20;;;;;;;20.06;29.97;99596.89;223800;183;129132;-69
2023/05/09 13:56:47;;;;;;;6.20;2.10;;;;;;;20.04;30.05;99590.92;223764;183;145748;-68
2023/05/09 14:01:50;;;;;;;5.20;2.60;;;;;;;20.01;29.86;99593.91;223592;183;138756;-68
2023/05/09 14:06:58;;;;;;;6.50;2.40;;;;;;;20.02;30.01;99582.45;223741;183;136773;-68
2023/05/09 14:12:15;;;;;;;6.30;2.50;;;;;;;20.12;29.47;99581.00;223693;183;145304;-68
2023/05/09 14:17:18;;;;;;;2.80;2.00;;;;;;;20.03;29.50;99572.44;223759;183;138805;-71
2023/05/09 14:22:21;;;;;;;8.70;2.20;;;;;;;19.93;29.65;99564.25;223635;183;136931;-70
2023/05/09 14:27:28;;;;;;;8.00;2.20;;;;;;;19.71;30.84;99565.52;223788;183;146745;-72
2023/05/09 14:32:32;;;;;;;3.70;2.10;;;;;;;19.45;30.21;99571.61;223776;183;138275;-68
2023/05/09 14:37:46;;;;;;;7.30;2.00;;;;;;;19.08;30.49;99579.10;223743;183;136702;-68
2023/05/09 14:42:56;;;;;;;7.60;2.20;;;;;;;18.83;30.56;99570.01;223770;183;145829;-67
2023/05/09 14:47:59;;;;;;;5.20;1.90;;;;;;;18.64;31.15;99568.72;223614;183;138499;-68
2023/05/09 14:53:02;;;;;;;7.60;2.50;;;;;;;18.46;30.80;99568.31;223751;183;151430;-68
2023/05/09 14:58:06;;;;;;;5.10;1.90;;;;;;;18.29;30.61;99563.32;223692;183;145846;-67
2023/05/09 15:03:09;;;;;;;6.80;1.70;;;;;;;18.18;31.29;99563.84;223740;183;138452;-67
2023/05/09 15:08:13;;;;;;;4.20;1.80;;;;;;;18.08;31.27;99558.96;223777;183;137219;-68
2023/05/09 15:13:17;;;;;;;4.60;2.00;;;;;;;17.89;30.21;99559.87;223722;183;146711;-66
2023/05/09 15:18:27;;;;;;;4.60;2.30;;;;;;;17.83;30.45;99552.48;223703;183;138718;-67
2023/05/09 16:33:38;;;;;;;7.20;3.20;;;;;;;16.26;34.42;99489.87;222123;193;666616;-69
2023/05/09 16:38:41;;;;;;;10.50;3.10;;;;;;;16.02;34.66;99485.44;223307;187;136172;-71
2023/05/09 16:43:44;;;;;;;4.60;2.60;;;;;;;15.95;35.13;99480.92;223589;183;145582;-70
2023/05/09 16:48:55;;;;;;;10.40;2.50;;;;;;;15.97;35.56;99472.08;223606;183;139014;-71
2023/05/09 16:53:58;;;;;;;6.50;2.40;;;;;;;16.01;35.46;99466.40;223836;183;136499;-71
2023/05/09 16:59:02;;;;;;;8.60;2.30;;;;;;;16.06;35.24;99465.25;223876;182;144060;-72
2023/05/09 17:04:05;;;;;;;6.50;2.80;;;;;;;16.17;35.01;99455.61;223754;183;138897;-71
2023/05/09 18:36:54;;;;;;;5.60;2.70;;;;;;;13.82;41.25;99465.52;222258;194;136295;-71
2023/05/09 18:41:58;;;;;;;7.70;2.80;;;;;;;13.81;40.81;99467.77;223636;183;143597;-71
2023/05/09 18:47:01;;;;;;;8.50;2.70;;;;;;;13.83;40.58;99460.29;223606;183;139069;-69
2023/05/09 18:52:05;;;;;;;7.80;3.00;;;;;;;13.86;40.68;99464.52;223566;184;136267;-68
2023/05/09 18:57:08;;;;;;;6.30;3.20;;;;;;;13.89;40.67;99465.58;223690;183;144271;-68
2023/05/09 19:02:11;;;;;;;8.80;3.50;;;;;;;13.92;40.61;99460.55;223559;184;139256;-68
2023/05/09 19:07:15;;;;;;;7.70;3.40;;;;;;;13.94;41.03;99461.63;223554;183;136741;-68
2023/05/09 19:12:18;;;;;;;9.10;3.50;;;;;;;13.94;41.37;99455.58;223490;217;143924;-68
2023/05/09 19:17:21;;;;;;;5.40;3.80;;;;;;;13.92;40.92;99454.85;223164;184;139083;-70
2023/05/09 19:22:25;;;;;;;6.00;3.70;;;;;;;13.93;40.83;99458.69;223534;184;136812;-68
2023/05/09 19:27:28;;;;;;;8.70;3.80;;;;;;;13.97;40.99;99454.16;223577;184;145975;-68
2023/05/09 19:32:31;;;;;;;8.60;3.70;;;;;;;13.90;41.36;99451.75;223638;183;138246;-68
2023/05/09 19:37:36;;;;;;;7.80;3.70;;;;;;;13.85;41.45;99452.14;223732;183;137386;-68
2023/05/09 19:42:40;;;;;;;8.00;4.00;;;;;;;13.87;41.32;99444.13;223542;184;146832;-69
2023/05/09 19:47:44;;;;;;;9.10;4.30;;;;;;;13.81;41.70;99440.63;223378;184;139964;-71
2023/05/09 19:53:12;;;;;;;7.50;4.80;;;;;;;13.74;41.95;99441.30;222071;190;666373;-69
2023/05/09 19:58:15;;;;;;;8.40;4.80;;;;;;;13.64;42.49;99442.48;223575;184;136918;-66
2023/05/09 20:03:19;;;;;;;9.00;4.60;;;;;;;13.59;42.42;99444.07;223634;185;145031;-67
2023/05/09 20:08:24;;;;;;;7.70;5.20;;;;;;;13.54;42.58;99444.45;223595;184;139370;-67
2023/05/09 20:13:28;;;;;;;11.70;4.70;;;;;;;13.47;42.84;99442.59;223714;184;136978;-66
2023/05/09 20:22:48;;;;;;;9.20;4.90;;;;;;;13.43;42.41;99435.89;221088;193;1070408;-64
2023/05/09 20:27:51;;;;;;;7.30;4.70;;;;;;;13.34;42.07;99438.09;223100;186;136480;-65
2023/05/09 20:32:55;;;;;;;10.20;4.60;;;;;;;13.28;42.08;99433.36;223629;183;143821;-64
2023/05/09 20:37:58;;;;;;;10.10;4.30;;;;;;;13.27;41.90;99430.38;223076;184;139015;-65
2023/05/09 20:43:01;;;;;;;8.50;5.00;;;;;;;13.24;42.01;99427.52;223553;184;136719;-64
2023/05/09 20:48:05;;;;;;;9.00;5.60;;;;;;;13.18;41.95;99427.56;223674;183;143841;-63
2023/05/09 20:53:08;;;;;;;10.60;5.50;;;;;;;13.14;42.06;99426.92;223651;184;138396;-65
2023/05/09 20:58:13;;;;;;;9.60;5.60;;;;;;;13.13;42.17;99424.16;223662;183;136204;-65
2023/05/09 21:03:16;;;;;;;10.90;6.40;;;;;;;13.12;42.02;99426.52;223707;183;143321;-65
2023/05/09 21:08:20;;;;;;;11.30;6.80;;;;;;;13.08;42.20;99421.15;223664;183;139123;-65
2023/05/09 21:13:23;;;;;;;15.30;6.50;;;;;;;13.06;42.07;99420.20;223756;183;136957;-65
2023/05/09 21:18:26;;;;;;;12.20;6.50;;;;;;;12.92;42.36;99421.25;223725;183;145299;-64
2023/05/09 21:23:29;;;;;;;17.30;6.30;;;;;;;12.83;42.49;99412.23;223591;183;138863;-63
2023/05/09 21:28:32;;;;;;;12.20;6.30;;;;;;;12.74;42.77;99409.41;223771;182;136239;-62
2023/05/09 21:33:35;;;;;;;12.00;6.30;;;;;;;12.72;42.87;99408.37;223830;182;145726;-63
2023/05/09 21:38:38;;;;;;;9.50;5.70;;;;;;;12.67;42.94;99405.81;223733;182;139169;-63
2023/05/09 21:43:41;;;;;;;11.40;5.40;;;;;;;12.61;43.08;99401.60;223791;182;137584;-63
2023/05/09 21:48:44;;;;;;;13.60;6.00;;;;;;;12.47;43.10;99399.24;223815;182;147205;-65
2023/05/09 21:53:47;;;;;;;10.90;5.80;;;;;;;12.39;43.41;99400.48;223732;182;138149;-64
2023/05/09 21:58:50;;;;;;;9.90;5.30;;;;;;;12.32;43.83;99401.27;223803;182;137080;-65
2023/05/09 22:03:54;;;;;;;12.20;5.40;;;;;;;12.22;44.09;99406.88;223790;182;145704;-65
2023/05/09 22:08:57;;;;;;;11.20;5.70;;;;;;;12.18;44.20;99401.45;223751;182;139614;-63
2023/05/09 22:14:08;;;;;;;10.40;6.70;;;;;;;12.10;44.57;99402.87;223778;182;136806;-65
2023/05/09 22:19:13;;;;;;;13.90;5.60;;;;;;;12.02;44.58;99401.54;223708;183;145334;-64
2023/05/09 22:24:16;;;;;;;11.60;6.00;;;;;;;11.92;45.13;99403.61;223778;182;140417;-65
2023/05/09 22:29:19;;;;;;;10.30;5.70;;;;;;;11.82;45.61;99397.96;223814;182;137215;-65
2023/05/09 22:34:22;;;;;;;11.10;5.20;;;;;;;11.73;45.99;99399.96;223674;182;145791;-66
2023/05/09 22:40:29;;;;;;;8.80;5.40;;;;;;;11.66;46.68;99394.84;221549;193;666544;-67
2023/05/09 22:45:37;;;;;;;14.70;6.70;;;;;;;11.52;46.94;99386.81;223517;184;136237;-66
2023/05/09 22:50:43;;;;;;;11.80;6.50;;;;;;;11.42;47.35;99381.90;223112;184;143416;-68
2023/05/09 22:55:47;;;;;;;12.50;6.10;;;;;;;11.32;47.76;99382.48;223580;183;138520;-68
2023/05/09 23:00:50;;;;;;;9.20;5.90;;;;;;;11.23;47.75;99382.19;223534;183;136693;-68
2023/05/09 23:05:53;;;;;;;11.30;5.30;;;;;;;11.17;48.00;99377.23;223684;183;143506;-67
2023/05/09 23:10:57;;;;;;;10.50;6.10;;;;;;;11.09;48.15;99374.83;223664;184;139678;-67
2023/05/09 23:16:00;;;;;;;10.20;6.10;;;;;;;11.00;48.20;99373.41;223684;183;136577;-68
2023/05/09 23:21:04;;;;;;;10.80;5.60;;;;;;;10.90;48.32;99364.77;223593;183;143414;-67
2023/05/09 23:26:09;;;;;;;11.00;5.20;;;;;;;10.80;48.59;99364.27;223687;183;138707;-68
2023/05/09 23:31:12;;;;;;;8.90;5.50;;;;;;;10.75;48.67;99359.92;221948;183;136834;-67
2023/05/09 23:36:16;;;;;;;11.30;5.60;;;;;;;10.72;48.68;99357.10;222364;183;145348;-68
2023/05/09 23:41:20;;;;;;;8.80;5.60;;;;;;;10.66;48.97;99354.96;223222;183;138766;-66
2023/05/09 23:46:24;;;;;;;11.90;5.70;;;;;;;10.60;49.24;99352.43;221163;183;136931;-70
2023/05/09 23:51:28;;;;;;;11.40;5.50;;;;;;;10.57;49.17;99355.65;223236;183;145577;-70
2023/05/09 23:56:31;;;;;;;12.40;5.70;;;;;;;10.53;49.44;99356.56;223330;184;138211;-69
